Fredericton, Canada
Current Conditions -  °F | °C
As of 3:00 AM on Sunday 23 Nov 2014 (Local Time) from CYFC Reporting Station
Overcast Overcast  
Wind Chill: 23°   Ceiling: 3700
Heat Index: 32°   Visibility: 9mi
Dew Point: 21°   Wind: 13mph
Humidity: 64%   Direction: 210°SSW
Pressure: 29.85"   Gusts: NA
Location:  45.96°N, 66.64°W
Report Text: CYFC 230700Z AUTO 21011KT 9SM OVC037 00/M06 A2985 RMK SLP110
Loading
Personal Weather Stations






























Interactive Weather Map New forecast layout! Learn more

10-Day Weather Forecast

Advertisements
Track Severe Weather on mobile